createdAt,value
2022-12-12T12:23:58.786Z,14.70
2022-12-12T12:24:58.705Z,21.00
2022-12-12T12:25:58.645Z,26.30
2022-12-12T12:26:58.592Z,22.10
2022-12-12T12:27:58.535Z,22.70
2022-12-12T12:28:58.486Z,18.90
2022-12-12T12:29:58.760Z,20.50
2022-12-12T12:30:58.447Z,17.90
2022-12-12T12:31:58.325Z,16.70
2022-12-12T12:32:58.292Z,19.50
2022-12-12T12:33:58.237Z,17.30
2022-12-12T12:34:58.193Z,15.10
2022-12-12T12:35:58.130Z,17.20
2022-12-12T12:36:58.091Z,16.80
2022-12-12T12:37:58.021Z,19.20
2022-12-12T12:38:57.972Z,16.00
2022-12-12T12:39:57.944Z,16.30
2022-12-12T12:40:58.340Z,15.50
2022-12-12T12:41:57.820Z,16.20
2022-12-12T12:42:57.776Z,18.40
2022-12-12T12:43:57.727Z,17.50
2022-12-12T12:44:57.681Z,15.40
2022-12-12T12:45:57.711Z,15.40
2022-12-12T12:46:57.580Z,16.70
2022-12-12T12:47:57.527Z,15.40
2022-12-12T12:48:57.478Z,16.20
2022-12-12T12:49:57.430Z,15.50
2022-12-12T12:50:57.379Z,15.20
2022-12-12T12:51:57.331Z,14.90
2022-12-12T12:52:57.295Z,17.00
2022-12-12T12:53:57.232Z,15.20
2022-12-12T12:54:57.184Z,14.10
2022-12-12T12:55:57.152Z,16.70
2022-12-12T12:56:57.091Z,14.50
2022-12-12T12:57:57.035Z,17.30
2022-12-12T12:58:56.989Z,17.10
2022-12-12T12:59:56.938Z,16.10
2022-12-12T13:00:56.890Z,15.30
2022-12-12T13:01:56.876Z,16.30
2022-12-12T13:02:56.849Z,16.60
2022-12-12T13:03:56.746Z,16.10
2022-12-12T13:04:56.698Z,15.50
2022-12-12T13:05:56.652Z,17.40
2022-12-12T13:06:56.600Z,16.80
2022-12-12T13:07:56.599Z,16.20
2022-12-12T13:08:56.506Z,17.90
2022-12-12T13:09:56.457Z,16.40
2022-12-12T19:01:19.766Z,25.00
2022-12-12T19:02:19.645Z,33.70
2022-12-12T19:03:19.595Z,39.60
2022-12-12T19:04:23.532Z,45.90
2022-12-12T19:05:19.436Z,43.90
2022-12-12T19:06:19.381Z,42.00
2022-12-12T19:07:19.325Z,40.00
2022-12-12T19:08:19.305Z,43.30
2022-12-12T19:09:19.219Z,46.60
2022-12-12T19:10:19.163Z,46.30
2022-12-12T19:11:19.112Z,47.20
2022-12-12T19:12:19.055Z,45.70
2022-12-12T19:13:19.004Z,44.20
2022-12-12T19:14:18.948Z,44.30
2022-12-12T19:15:18.908Z,42.40
2022-12-12T19:16:18.897Z,43.00
2022-12-12T19:17:25.253Z,44.00
2022-12-12T19:18:18.734Z,38.30
2022-12-12T19:19:18.685Z,39.20
2022-12-12T19:20:18.631Z,41.00
2022-12-12T19:21:18.584Z,46.00
2022-12-12T19:22:43.826Z,46.80
2022-12-12T19:23:18.472Z,41.90
2022-12-12T19:24:18.423Z,41.00
2022-12-12T19:25:18.381Z,46.50
2022-12-12T19:26:18.319Z,43.00
2022-12-12T19:27:18.267Z,39.90
2022-12-12T19:28:18.216Z,44.40
2022-12-12T19:29:18.164Z,39.10
2022-12-12T19:30:18.477Z,40.90
2022-12-12T19:31:18.122Z,40.50
2022-12-12T19:32:18.015Z,39.90
2022-12-12T19:33:17.977Z,37.50
2022-12-12T19:34:17.911Z,37.70
2022-12-12T19:35:17.892Z,38.50
2022-12-12T19:36:17.808Z,36.80
2022-12-12T19:37:17.753Z,36.40
2022-12-12T19:38:24.154Z,43.10
2022-12-12T19:39:17.649Z,38.90
2022-12-12T19:40:17.820Z,39.20
2022-12-12T19:41:17.548Z,37.30
2022-12-12T19:42:17.498Z,37.80
2022-12-12T19:43:17.447Z,37.60
2022-12-12T19:44:17.394Z,39.60
2022-12-12T19:45:17.343Z,39.90
2022-12-12T19:46:17.319Z,37.80
2022-12-12T19:47:17.242Z,40.90
2022-12-12T19:48:17.196Z,35.50
2022-12-12T19:49:17.155Z,41.60
2022-12-12T19:50:17.453Z,42.40
2022-12-12T19:52:16.987Z,37.80
2022-12-12T19:53:16.940Z,40.20
2022-12-12T19:54:16.886Z,42.10
2022-12-12T19:55:16.871Z,45.10
2022-12-12T19:56:16.791Z,45.00
2022-12-12T19:57:17.344Z,44.90
2022-12-12T19:58:16.680Z,41.40
2022-12-12T19:59:16.653Z,44.90
2022-12-12T20:00:16.867Z,42.60
2022-12-12T20:01:16.570Z,41.30
2022-12-12T20:02:16.544Z,43.10
2022-12-12T20:03:16.437Z,41.30
2022-12-12T20:04:16.374Z,42.60
2022-12-12T20:05:16.352Z,41.90
2022-12-12T20:06:16.270Z,41.50
2022-12-12T20:07:16.222Z,41.50
2022-12-12T20:08:16.259Z,43.90
2022-12-12T20:09:16.143Z,42.70
2022-12-12T20:10:16.415Z,42.70
2022-12-12T20:11:16.038Z,40.50
2022-12-12T20:12:15.962Z,40.60
2022-12-12T20:13:15.944Z,42.10
2022-12-12T20:14:15.871Z,44.60
2022-12-12T20:15:15.848Z,41.20
2022-12-12T20:16:15.808Z,43.00
2022-12-12T20:17:15.776Z,42.10
2022-12-12T20:18:16.637Z,44.70
2022-12-12T20:19:15.657Z,45.90
2022-12-12T20:20:15.918Z,43.90
2022-12-12T20:21:36.294Z,44.70
2022-12-12T20:22:15.456Z,47.00
2022-12-12T20:23:15.444Z,43.90
2022-12-12T20:24:15.351Z,41.70
2022-12-12T20:25:15.305Z,46.50
2022-12-12T20:26:15.254Z,42.40
2022-12-12T20:27:15.276Z,41.20
2022-12-12T20:28:15.156Z,45.30
2022-12-12T20:29:15.100Z,42.50
2022-12-12T20:30:15.314Z,40.70
2022-12-12T20:31:15.066Z,41.60
2022-12-12T20:32:14.947Z,40.30
2022-12-12T20:33:14.896Z,43.30
2022-12-12T20:34:14.843Z,41.10
2022-12-12T20:35:14.793Z,41.60
2022-12-12T20:36:14.741Z,41.60
2022-12-12T20:37:19.728Z,46.20
2022-12-12T20:38:14.638Z,41.30
2022-12-12T20:39:14.592Z,47.60
2022-12-12T20:40:14.881Z,49.50
2022-12-12T20:41:14.487Z,47.70
2022-12-12T20:42:14.437Z,45.50
2022-12-12T20:43:14.409Z,46.00
2022-12-12T20:44:14.369Z,47.00
2022-12-12T20:45:14.448Z,47.90
2022-12-12T20:46:14.292Z,46.80
2022-12-12T20:47:14.190Z,43.50
2022-12-12T20:48:14.131Z,43.10
2022-12-12T20:49:14.081Z,43.60
2022-12-12T20:50:14.037Z,42.10
2022-12-12T20:51:45.617Z,39.40
2022-12-12T20:52:13.930Z,40.40
2022-12-12T20:53:13.899Z,41.30
2022-12-12T20:54:13.825Z,42.10
2022-12-12T20:55:14.077Z,40.90
2022-12-12T20:56:13.725Z,39.40
2022-12-12T20:57:13.679Z,38.10
2022-12-12T20:58:13.620Z,41.50
2022-12-12T20:59:13.576Z,40.50
2022-12-12T21:00:13.801Z,42.30
2022-12-12T21:01:13.551Z,37.90
2022-12-12T21:02:13.420Z,37.00
2022-12-12T21:03:13.420Z,43.10
2022-12-12T21:04:13.314Z,41.30
2022-12-12T21:05:13.523Z,41.30
2022-12-12T21:06:13.291Z,43.70
2022-12-12T21:07:13.159Z,42.40
2022-12-12T21:08:13.283Z,46.20
2022-12-12T21:09:19.219Z,47.50
2022-12-12T21:10:13.032Z,49.10
2022-12-12T21:11:12.957Z,44.70
2022-12-12T21:12:12.924Z,45.60
2022-12-12T21:13:12.859Z,45.70
2022-12-12T21:14:12.802Z,41.90
2022-12-12T21:15:12.753Z,44.70
2022-12-12T21:16:12.735Z,40.90
2022-12-12T21:17:12.652Z,46.10
2022-12-12T21:18:12.595Z,42.30
2022-12-12T21:19:12.549Z,43.50
2022-12-12T21:20:12.494Z,41.50
2022-12-12T21:21:12.446Z,47.10
2022-12-12T21:22:12.393Z,45.80
2022-12-12T21:23:12.342Z,41.00
2022-12-12T21:25:12.592Z,44.50
2022-12-12T21:26:16.721Z,44.60
2022-12-12T21:27:12.135Z,41.50
2022-12-12T21:28:12.085Z,40.70
2022-12-12T21:29:12.031Z,47.60
2022-12-12T21:30:11.990Z,47.00
2022-12-12T21:31:11.998Z,42.00
2022-12-12T21:32:11.883Z,41.60
2022-12-12T21:33:11.828Z,44.50
2022-12-12T21:34:11.777Z,43.00
2022-12-12T21:35:12.262Z,44.80
2022-12-12T21:36:11.675Z,41.40
2022-12-12T21:37:11.622Z,49.60
2022-12-12T21:38:11.575Z,42.50
2022-12-12T21:39:11.730Z,43.30
2022-12-12T21:40:11.470Z,43.90
2022-12-12T21:41:11.443Z,42.90
2022-12-12T21:42:11.368Z,39.10
2022-12-12T21:43:11.316Z,42.80
2022-12-12T21:44:11.271Z,45.00
2022-12-12T21:45:11.706Z,42.00
2022-12-12T21:46:11.209Z,44.40
2022-12-12T21:47:11.109Z,41.30
2022-12-12T21:48:11.062Z,45.80
2022-12-12T21:49:11.016Z,42.30
2022-12-12T21:50:10.957Z,40.90
2022-12-12T21:51:10.904Z,44.50
2022-12-12T21:52:10.855Z,42.30
2022-12-12T21:53:10.811Z,43.30
2022-12-12T21:54:10.751Z,46.90
2022-12-12T21:55:10.701Z,47.20
2022-12-12T21:56:10.651Z,51.50
2022-12-12T21:57:10.616Z,51.40
2022-12-12T21:58:10.576Z,53.50
2022-12-12T21:59:10.495Z,57.00
2022-12-12T22:00:10.444Z,55.80
2022-12-12T22:01:10.463Z,58.10
2022-12-12T22:02:10.340Z,58.00
2022-12-12T22:03:10.317Z,55.10
2022-12-12T22:04:10.238Z,53.80
2022-12-12T22:05:10.186Z,62.20
2022-12-12T22:06:10.139Z,54.70
2022-12-12T22:07:10.083Z,58.10
2022-12-12T22:08:10.122Z,61.50
2022-12-12T22:09:09.989Z,55.10
2022-12-12T22:10:10.923Z,61.00
2022-12-12T22:11:09.879Z,59.00
2022-12-12T22:12:09.825Z,58.40
2022-12-12T22:13:09.793Z,56.00
